sensor_id;sensor_type;location;lat;lon;timestamp;P1;durP1;ratioP1;P2;durP2;ratioP2
5085;SDS011;4715;51.660;7.082;2023-07-13T00:01:06;2.00;;;1.83;;
5085;SDS011;4715;51.660;7.082;2023-07-13T00:03:30;3.97;;;2.70;;
5085;SDS011;4715;51.660;7.082;2023-07-13T00:05:57;6.00;;;2.37;;
5085;SDS011;4715;51.660;7.082;2023-07-13T00:08:21;2.07;;;1.97;;
5085;SDS011;4715;51.660;7.082;2023-07-13T00:10:43;3.53;;;2.00;;
5085;SDS011;4715;51.660;7.082;2023-07-13T00:13:06;3.20;;;1.70;;
5085;SDS011;4715;51.660;7.082;2023-07-13T00:15:29;3.03;;;1.90;;
5085;SDS011;4715;51.660;7.082;2023-07-13T00:17:52;2.77;;;1.63;;
5085;SDS011;4715;51.660;7.082;2023-07-13T00:20:15;1.70;;;1.60;;
5085;SDS011;4715;51.660;7.082;2023-07-13T00:22:37;4.50;;;2.90;;
5085;SDS011;4715;51.660;7.082;2023-07-13T00:25:01;3.63;;;2.00;;
5085;SDS011;4715;51.660;7.082;2023-07-13T00:27:23;2.23;;;2.00;;
5085;SDS011;4715;51.660;7.082;2023-07-13T00:29:46;3.00;;;1.73;;
5085;SDS011;4715;51.660;7.082;2023-07-13T00:32:08;2.20;;;1.77;;
5085;SDS011;4715;51.660;7.082;2023-07-13T00:34:31;3.30;;;2.20;;
5085;SDS011;4715;51.660;7.082;2023-07-13T00:36:53;3.53;;;1.90;;
5085;SDS011;4715;51.660;7.082;2023-07-13T00:39:15;2.00;;;1.67;;
5085;SDS011;4715;51.660;7.082;2023-07-13T00:41:38;3.17;;;1.70;;
5085;SDS011;4715;51.660;7.082;2023-07-13T00:44:00;3.30;;;2.13;;
5085;SDS011;4715;51.660;7.082;2023-07-13T00:46:24;3.43;;;1.97;;
5085;SDS011;4715;51.660;7.082;2023-07-13T00:48:48;4.70;;;1.90;;
5085;SDS011;4715;51.660;7.082;2023-07-13T00:51:11;2.73;;;1.43;;
5085;SDS011;4715;51.660;7.082;2023-07-13T00:53:33;2.40;;;1.83;;
5085;SDS011;4715;51.660;7.082;2023-07-13T00:55:55;1.70;;;1.60;;
5085;SDS011;4715;51.660;7.082;2023-07-13T00:58:19;2.13;;;1.50;;
5085;SDS011;4715;51.660;7.082;2023-07-13T01:00:41;1.40;;;1.30;;
5085;SDS011;4715;51.660;7.082;2023-07-13T01:03:03;2.10;;;1.73;;
5085;SDS011;4715;51.660;7.082;2023-07-13T01:05:25;1.73;;;1.63;;
5085;SDS011;4715;51.660;7.082;2023-07-13T01:07:48;1.60;;;1.47;;
5085;SDS011;4715;51.660;7.082;2023-07-13T01:10:12;1.40;;;1.30;;
5085;SDS011;4715;51.660;7.082;2023-07-13T01:12:34;4.17;;;1.50;;
5085;SDS011;4715;51.660;7.082;2023-07-13T01:14:58;3.57;;;1.40;;
5085;SDS011;4715;51.660;7.082;2023-07-13T01:17:20;5.00;;;1.90;;
5085;SDS011;4715;51.660;7.082;2023-07-13T01:19:43;1.60;;;1.50;;
5085;SDS011;4715;51.660;7.082;2023-07-13T01:22:07;2.53;;;1.50;;
5085;SDS011;4715;51.660;7.082;2023-07-13T01:24:31;5.40;;;1.43;;
5085;SDS011;4715;51.660;7.082;2023-07-13T01:26:54;3.30;;;1.50;;
5085;SDS011;4715;51.660;7.082;2023-07-13T01:29:16;4.10;;;1.60;;
5085;SDS011;4715;51.660;7.082;2023-07-13T01:31:38;5.03;;;1.93;;
5085;SDS011;4715;51.660;7.082;2023-07-13T01:34:00;3.03;;;1.97;;
5085;SDS011;4715;51.660;7.082;2023-07-13T01:36:21;4.37;;;1.80;;
5085;SDS011;4715;51.660;7.082;2023-07-13T01:38:44;2.40;;;1.50;;
5085;SDS011;4715;51.660;7.082;2023-07-13T01:41:06;7.33;;;2.40;;
5085;SDS011;4715;51.660;7.082;2023-07-13T01:43:28;3.43;;;2.00;;
5085;SDS011;4715;51.660;7.082;2023-07-13T01:45:50;2.60;;;1.93;;
5085;SDS011;4715;51.660;7.082;2023-07-13T01:48:12;4.77;;;1.90;;
5085;SDS011;4715;51.660;7.082;2023-07-13T01:50:35;5.77;;;2.00;;
5085;SDS011;4715;51.660;7.082;2023-07-13T01:52:57;3.17;;;2.20;;
5085;SDS011;4715;51.660;7.082;2023-07-13T01:55:20;4.17;;;1.90;;
5085;SDS011;4715;51.660;7.082;2023-07-13T01:57:43;3.50;;;1.83;;
5085;SDS011;4715;51.660;7.082;2023-07-13T02:00:04;2.63;;;1.90;;
5085;SDS011;4715;51.660;7.082;2023-07-13T02:02:27;1.73;;;1.63;;
5085;SDS011;4715;51.660;7.082;2023-07-13T02:04:49;6.03;;;1.83;;
5085;SDS011;4715;51.660;7.082;2023-07-13T02:07:11;3.40;;;1.90;;
5085;SDS011;4715;51.660;7.082;2023-07-13T02:09:32;3.40;;;1.63;;
5085;SDS011;4715;51.660;7.082;2023-07-13T02:11:56;3.83;;;1.77;;
5085;SDS011;4715;51.660;7.082;2023-07-13T02:14:17;2.13;;;1.80;;
5085;SDS011;4715;51.660;7.082;2023-07-13T02:16:39;2.30;;;1.67;;
5085;SDS011;4715;51.660;7.082;2023-07-13T02:19:01;4.60;;;2.37;;
5085;SDS011;4715;51.660;7.082;2023-07-13T02:21:23;5.00;;;1.83;;
5085;SDS011;4715;51.660;7.082;2023-07-13T02:23:45;1.70;;;1.60;;
5085;SDS011;4715;51.660;7.082;2023-07-13T02:26:07;2.57;;;1.70;;
5085;SDS011;4715;51.660;7.082;2023-07-13T02:28:30;5.13;;;1.90;;
5085;SDS011;4715;51.660;7.082;2023-07-13T02:30:51;2.60;;;1.53;;
5085;SDS011;4715;51.660;7.082;2023-07-13T02:33:13;4.13;;;1.70;;
5085;SDS011;4715;51.660;7.082;2023-07-13T02:35:35;3.00;;;1.90;;
5085;SDS011;4715;51.660;7.082;2023-07-13T02:37:57;3.77;;;1.83;;
5085;SDS011;4715;51.660;7.082;2023-07-13T02:40:19;4.37;;;1.93;;
5085;SDS011;4715;51.660;7.082;2023-07-13T02:42:41;3.93;;;1.70;;
5085;SDS011;4715;51.660;7.082;2023-07-13T02:45:05;7.57;;;2.63;;
5085;SDS011;4715;51.660;7.082;2023-07-13T02:47:27;1.97;;;1.70;;
5085;SDS011;4715;51.660;7.082;2023-07-13T02:49:49;4.97;;;1.80;;
5085;SDS011;4715;51.660;7.082;2023-07-13T02:52:11;1.90;;;1.77;;
5085;SDS011;4715;51.660;7.082;2023-07-13T02:54:33;6.00;;;2.13;;
5085;SDS011;4715;51.660;7.082;2023-07-13T02:56:54;4.73;;;2.10;;
5085;SDS011;4715;51.660;7.082;2023-07-13T02:59:16;5.23;;;2.20;;
5085;SDS011;4715;51.660;7.082;2023-07-13T03:01:39;4.30;;;2.53;;
5085;SDS011;4715;51.660;7.082;2023-07-13T03:04:01;3.47;;;2.27;;
5085;SDS011;4715;51.660;7.082;2023-07-13T03:06:24;3.20;;;2.23;;
5085;SDS011;4715;51.660;7.082;2023-07-13T03:08:49;6.30;;;2.13;;
5085;SDS011;4715;51.660;7.082;2023-07-13T03:11:15;3.53;;;1.83;;
5085;SDS011;4715;51.660;7.082;2023-07-13T03:13:40;4.03;;;2.00;;
5085;SDS011;4715;51.660;7.082;2023-07-13T03:16:03;8.73;;;2.20;;
5085;SDS011;4715;51.660;7.082;2023-07-13T03:18:28;4.10;;;2.63;;
5085;SDS011;4715;51.660;7.082;2023-07-13T03:20:52;6.10;;;2.27;;
5085;SDS011;4715;51.660;7.082;2023-07-13T03:23:14;1.80;;;1.70;;
5085;SDS011;4715;51.660;7.082;2023-07-13T03:25:37;4.30;;;1.93;;
5085;SDS011;4715;51.660;7.082;2023-07-13T03:28:03;3.90;;;2.20;;
5085;SDS011;4715;51.660;7.082;2023-07-13T03:30:26;3.40;;;1.83;;
5085;SDS011;4715;51.660;7.082;2023-07-13T03:32:49;5.77;;;2.20;;
5085;SDS011;4715;51.660;7.082;2023-07-13T03:35:13;1.87;;;1.77;;
5085;SDS011;4715;51.660;7.082;2023-07-13T03:37:35;3.70;;;1.87;;
5085;SDS011;4715;51.660;7.082;2023-07-13T03:40:02;2.30;;;1.70;;
5085;SDS011;4715;51.660;7.082;2023-07-13T03:42:27;1.93;;;1.80;;
5085;SDS011;4715;51.660;7.082;2023-07-13T03:44:50;2.03;;;1.87;;
5085;SDS011;4715;51.660;7.082;2023-07-13T03:47:13;3.03;;;2.70;;
5085;SDS011;4715;51.660;7.082;2023-07-13T03:49:35;6.50;;;2.60;;
5085;SDS011;4715;51.660;7.082;2023-07-13T03:51:58;9.37;;;3.53;;
5085;SDS011;4715;51.660;7.082;2023-07-13T03:54:20;4.53;;;2.60;;
5085;SDS011;4715;51.660;7.082;2023-07-13T03:56:47;3.33;;;2.03;;
5085;SDS011;4715;51.660;7.082;2023-07-13T03:59:10;6.60;;;2.73;;
5085;SDS011;4715;51.660;7.082;2023-07-13T04:01:33;2.97;;;2.53;;
5085;SDS011;4715;51.660;7.082;2023-07-13T04:03:55;3.33;;;1.70;;
5085;SDS011;4715;51.660;7.082;2023-07-13T04:06:18;4.50;;;1.93;;
5085;SDS011;4715;51.660;7.082;2023-07-13T04:08:46;5.13;;;1.73;;
5085;SDS011;4715;51.660;7.082;2023-07-13T04:11:11;4.40;;;2.27;;
5085;SDS011;4715;51.660;7.082;2023-07-13T04:13:34;5.17;;;2.00;;
5085;SDS011;4715;51.660;7.082;2023-07-13T04:15:59;2.20;;;2.00;;
5085;SDS011;4715;51.660;7.082;2023-07-13T04:18:24;4.23;;;2.10;;
5085;SDS011;4715;51.660;7.082;2023-07-13T04:20:46;2.60;;;1.97;;
5085;SDS011;4715;51.660;7.082;2023-07-13T04:23:10;2.93;;;1.97;;
5085;SDS011;4715;51.660;7.082;2023-07-13T04:25:33;3.23;;;1.87;;
5085;SDS011;4715;51.660;7.082;2023-07-13T04:28:01;6.60;;;2.37;;
5085;SDS011;4715;51.660;7.082;2023-07-13T04:30:25;3.70;;;2.50;;
5085;SDS011;4715;51.660;7.082;2023-07-13T04:32:50;4.10;;;2.03;;
5085;SDS011;4715;51.660;7.082;2023-07-13T04:35:14;3.70;;;2.13;;
5085;SDS011;4715;51.660;7.082;2023-07-13T04:37:36;5.27;;;2.30;;
5085;SDS011;4715;51.660;7.082;2023-07-13T04:39:59;3.97;;;2.27;;
5085;SDS011;4715;51.660;7.082;2023-07-13T04:42:25;4.10;;;2.03;;
5085;SDS011;4715;51.660;7.082;2023-07-13T04:44:49;4.87;;;2.27;;
5085;SDS011;4715;51.660;7.082;2023-07-13T04:47:11;2.33;;;2.13;;
5085;SDS011;4715;51.660;7.082;2023-07-13T04:49:33;6.07;;;2.43;;
5085;SDS011;4715;51.660;7.082;2023-07-13T04:51:55;4.47;;;2.63;;
5085;SDS011;4715;51.660;7.082;2023-07-13T04:54:17;4.00;;;2.43;;
5085;SDS011;4715;51.660;7.082;2023-07-13T04:56:45;3.43;;;2.40;;
5085;SDS011;4715;51.660;7.082;2023-07-13T04:59:08;10.60;;;2.47;;
5085;SDS011;4715;51.660;7.082;2023-07-13T05:01:30;4.77;;;2.17;;
5085;SDS011;4715;51.660;7.082;2023-07-13T05:03:52;5.77;;;3.67;;
5085;SDS011;4715;51.660;7.082;2023-07-13T05:06:15;3.73;;;2.37;;
5085;SDS011;4715;51.660;7.082;2023-07-13T05:08:37;2.20;;;2.00;;
5085;SDS011;4715;51.660;7.082;2023-07-13T05:10:59;3.53;;;1.93;;
5085;SDS011;4715;51.660;7.082;2023-07-13T05:13:21;5.97;;;2.73;;
5085;SDS011;4715;51.660;7.082;2023-07-13T05:15:46;5.57;;;2.47;;
5085;SDS011;4715;51.660;7.082;2023-07-13T05:18:16;3.63;;;1.80;;
5085;SDS011;4715;51.660;7.082;2023-07-13T05:20:37;5.10;;;2.13;;
5085;SDS011;4715;51.660;7.082;2023-07-13T05:23:00;8.30;;;3.20;;
5085;SDS011;4715;51.660;7.082;2023-07-13T05:25:21;3.67;;;2.47;;
5085;SDS011;4715;51.660;7.082;2023-07-13T05:27:43;4.07;;;2.33;;
5085;SDS011;4715;51.660;7.082;2023-07-13T05:30:07;5.23;;;2.80;;
5085;SDS011;4715;51.660;7.082;2023-07-13T05:32:32;5.40;;;2.70;;
5085;SDS011;4715;51.660;7.082;2023-07-13T05:34:54;4.13;;;2.80;;
5085;SDS011;4715;51.660;7.082;2023-07-13T05:37:16;3.80;;;1.87;;
5085;SDS011;4715;51.660;7.082;2023-07-13T05:39:38;4.37;;;2.43;;
5085;SDS011;4715;51.660;7.082;2023-07-13T05:42:01;5.33;;;2.40;;
5085;SDS011;4715;51.660;7.082;2023-07-13T05:44:23;5.70;;;2.53;;
5085;SDS011;4715;51.660;7.082;2023-07-13T05:46:45;5.13;;;3.20;;
5085;SDS011;4715;51.660;7.082;2023-07-13T05:49:08;3.30;;;2.60;;
5085;SDS011;4715;51.660;7.082;2023-07-13T05:51:30;2.80;;;2.47;;
5085;SDS011;4715;51.660;7.082;2023-07-13T05:53:52;6.97;;;2.40;;
5085;SDS011;4715;51.660;7.082;2023-07-13T05:56:13;7.23;;;3.10;;
5085;SDS011;4715;51.660;7.082;2023-07-13T05:58:36;8.90;;;2.90;;
5085;SDS011;4715;51.660;7.082;2023-07-13T06:01:00;6.00;;;2.33;;
5085;SDS011;4715;51.660;7.082;2023-07-13T06:03:23;3.93;;;2.30;;
5085;SDS011;4715;51.660;7.082;2023-07-13T06:05:46;8.73;;;3.83;;
5085;SDS011;4715;51.660;7.082;2023-07-13T06:08:08;6.80;;;3.70;;
5085;SDS011;4715;51.660;7.082;2023-07-13T06:10:32;4.53;;;3.47;;
5085;SDS011;4715;51.660;7.082;2023-07-13T06:12:54;9.83;;;3.37;;
5085;SDS011;4715;51.660;7.082;2023-07-13T06:15:16;8.37;;;4.03;;
5085;SDS011;4715;51.660;7.082;2023-07-13T06:17:38;6.40;;;3.00;;
5085;SDS011;4715;51.660;7.082;2023-07-13T06:20:00;7.17;;;2.77;;
5085;SDS011;4715;51.660;7.082;2023-07-13T06:22:23;7.37;;;3.27;;
5085;SDS011;4715;51.660;7.082;2023-07-13T06:24:45;9.70;;;3.80;;
5085;SDS011;4715;51.660;7.082;2023-07-13T06:27:06;11.00;;;4.63;;
5085;SDS011;4715;51.660;7.082;2023-07-13T06:29:28;9.57;;;4.60;;
5085;SDS011;4715;51.660;7.082;2023-07-13T06:31:51;7.30;;;3.90;;
5085;SDS011;4715;51.660;7.082;2023-07-13T06:34:13;6.13;;;3.60;;
5085;SDS011;4715;51.660;7.082;2023-07-13T06:36:35;8.50;;;3.87;;
5085;SDS011;4715;51.660;7.082;2023-07-13T06:39:01;8.23;;;4.47;;
5085;SDS011;4715;51.660;7.082;2023-07-13T06:41:24;11.10;;;3.73;;
5085;SDS011;4715;51.660;7.082;2023-07-13T06:43:46;7.73;;;4.50;;
5085;SDS011;4715;51.660;7.082;2023-07-13T06:46:13;5.50;;;4.27;;
5085;SDS011;4715;51.660;7.082;2023-07-13T06:48:35;7.77;;;5.00;;
5085;SDS011;4715;51.660;7.082;2023-07-13T06:50:57;7.10;;;4.47;;
5085;SDS011;4715;51.660;7.082;2023-07-13T06:53:20;7.40;;;4.50;;
5085;SDS011;4715;51.660;7.082;2023-07-13T06:55:45;15.10;;;5.60;;
5085;SDS011;4715;51.660;7.082;2023-07-13T06:58:08;10.93;;;5.73;;
5085;SDS011;4715;51.660;7.082;2023-07-13T07:00:30;14.93;;;6.37;;
5085;SDS011;4715;51.660;7.082;2023-07-13T07:02:52;9.67;;;5.90;;
5085;SDS011;4715;51.660;7.082;2023-07-13T07:05:14;9.20;;;5.90;;
5085;SDS011;4715;51.660;7.082;2023-07-13T07:07:36;8.23;;;6.33;;
5085;SDS011;4715;51.660;7.082;2023-07-13T07:09:58;8.67;;;6.10;;
5085;SDS011;4715;51.660;7.082;2023-07-13T07:12:24;13.53;;;5.87;;
5085;SDS011;4715;51.660;7.082;2023-07-13T07:14:46;8.63;;;5.00;;
5085;SDS011;4715;51.660;7.082;2023-07-13T07:17:10;7.40;;;5.37;;
5085;SDS011;4715;51.660;7.082;2023-07-13T07:19:33;12.70;;;6.00;;
5085;SDS011;4715;51.660;7.082;2023-07-13T07:21:56;9.90;;;6.10;;
5085;SDS011;4715;51.660;7.082;2023-07-13T07:24:23;13.53;;;5.90;;
5085;SDS011;4715;51.660;7.082;2023-07-13T07:26:46;11.20;;;5.17;;
5085;SDS011;4715;51.660;7.082;2023-07-13T07:29:09;9.70;;;6.13;;
5085;SDS011;4715;51.660;7.082;2023-07-13T07:31:38;11.70;;;5.90;;
5085;SDS011;4715;51.660;7.082;2023-07-13T07:34:01;9.30;;;5.90;;
5085;SDS011;4715;51.660;7.082;2023-07-13T07:36:25;11.50;;;5.93;;
5085;SDS011;4715;51.660;7.082;2023-07-13T07:38:54;9.63;;;6.20;;
5085;SDS011;4715;51.660;7.082;2023-07-13T07:41:16;12.83;;;6.70;;
5085;SDS011;4715;51.660;7.082;2023-07-13T07:43:38;10.33;;;6.77;;
5085;SDS011;4715;51.660;7.082;2023-07-13T07:46:01;8.70;;;6.70;;
5085;SDS011;4715;51.660;7.082;2023-07-13T07:48:25;9.80;;;6.53;;
5085;SDS011;4715;51.660;7.082;2023-07-13T07:50:48;12.30;;;7.50;;
5085;SDS011;4715;51.660;7.082;2023-07-13T07:53:10;13.20;;;8.13;;
5085;SDS011;4715;51.660;7.082;2023-07-13T07:55:33;15.57;;;8.27;;
5085;SDS011;4715;51.660;7.082;2023-07-13T07:57:56;10.13;;;6.80;;
5085;SDS011;4715;51.660;7.082;2023-07-13T08:00:18;12.70;;;7.27;;
5085;SDS011;4715;51.660;7.082;2023-07-13T08:02:43;11.70;;;9.17;;
5085;SDS011;4715;51.660;7.082;2023-07-13T08:05:05;9.10;;;7.77;;
5085;SDS011;4715;51.660;7.082;2023-07-13T08:07:29;13.03;;;9.47;;
5085;SDS011;4715;51.660;7.082;2023-07-13T08:09:52;9.00;;;8.10;;
5085;SDS011;4715;51.660;7.082;2023-07-13T08:12:14;13.67;;;10.40;;
5085;SDS011;4715;51.660;7.082;2023-07-13T08:14:36;9.57;;;8.67;;
5085;SDS011;4715;51.660;7.082;2023-07-13T08:16:59;10.90;;;9.30;;
5085;SDS011;4715;51.660;7.082;2023-07-13T08:19:23;12.13;;;10.50;;
5085;SDS011;4715;51.660;7.082;2023-07-13T08:21:45;13.77;;;8.60;;
5085;SDS011;4715;51.660;7.082;2023-07-13T08:24:10;9.30;;;8.40;;
5085;SDS011;4715;51.660;7.082;2023-07-13T08:26:33;17.13;;;8.13;;
5085;SDS011;4715;51.660;7.082;2023-07-13T08:28:55;10.37;;;7.80;;
5085;SDS011;4715;51.660;7.082;2023-07-13T08:31:17;11.03;;;6.87;;
5085;SDS011;4715;51.660;7.082;2023-07-13T08:33:39;8.03;;;7.30;;
5085;SDS011;4715;51.660;7.082;2023-07-13T08:36:03;8.33;;;6.10;;
5085;SDS011;4715;51.660;7.082;2023-07-13T08:38:26;12.07;;;6.87;;
5085;SDS011;4715;51.660;7.082;2023-07-13T08:40:49;6.77;;;6.10;;
5085;SDS011;4715;51.660;7.082;2023-07-13T08:43:13;9.40;;;5.10;;
5085;SDS011;4715;51.660;7.082;2023-07-13T08:45:38;9.37;;;5.50;;
5085;SDS011;4715;51.660;7.082;2023-07-13T08:48:05;14.07;;;5.40;;
5085;SDS011;4715;51.660;7.082;2023-07-13T08:50:33;6.30;;;5.70;;
5085;SDS011;4715;51.660;7.082;2023-07-13T08:53:02;8.13;;;5.50;;
5085;SDS011;4715;51.660;7.082;2023-07-13T08:55:26;8.17;;;4.50;;
5085;SDS011;4715;51.660;7.082;2023-07-13T08:57:54;7.47;;;4.67;;
5085;SDS011;4715;51.660;7.082;2023-07-13T09:00:21;7.70;;;4.90;;
5085;SDS011;4715;51.660;7.082;2023-07-13T09:02:46;13.30;;;6.20;;
5085;SDS011;4715;51.660;7.082;2023-07-13T09:05:15;5.30;;;4.70;;
5085;SDS011;4715;51.660;7.082;2023-07-13T09:07:55;6.40;;;4.20;;
5085;SDS011;4715;51.660;7.082;2023-07-13T09:10:31;5.53;;;3.80;;
5085;SDS011;4715;51.660;7.082;2023-07-13T09:13:01;18.07;;;6.10;;
5085;SDS011;4715;51.660;7.082;2023-07-13T09:15:35;7.53;;;4.17;;
5085;SDS011;4715;51.660;7.082;2023-07-13T09:18:01;5.30;;;3.50;;
5085;SDS011;4715;51.660;7.082;2023-07-13T09:20:28;8.33;;;4.13;;
5085;SDS011;4715;51.660;7.082;2023-07-13T09:22:54;6.70;;;5.40;;
5085;SDS011;4715;51.660;7.082;2023-07-13T09:25:23;10.63;;;5.60;;
5085;SDS011;4715;51.660;7.082;2023-07-13T09:27:48;7.40;;;6.43;;
5085;SDS011;4715;51.660;7.082;2023-07-13T09:30:21;10.63;;;8.30;;
5085;SDS011;4715;51.660;7.082;2023-07-13T09:32:51;12.63;;;8.50;;
5085;SDS011;4715;51.660;7.082;2023-07-13T09:35:15;11.70;;;8.73;;
5085;SDS011;4715;51.660;7.082;2023-07-13T09:37:40;7.77;;;7.03;;
5085;SDS011;4715;51.660;7.082;2023-07-13T09:40:05;11.77;;;6.80;;
5085;SDS011;4715;51.660;7.082;2023-07-13T09:42:33;7.27;;;6.57;;
5085;SDS011;4715;51.660;7.082;2023-07-13T09:44:55;8.23;;;7.50;;
5085;SDS011;4715;51.660;7.082;2023-07-13T09:47:23;9.03;;;7.40;;
5085;SDS011;4715;51.660;7.082;2023-07-13T09:49:53;6.43;;;5.93;;
5085;SDS011;4715;51.660;7.082;2023-07-13T09:52:18;11.90;;;8.03;;
5085;SDS011;4715;51.660;7.082;2023-07-13T09:54:43;13.40;;;9.10;;
5085;SDS011;4715;51.660;7.082;2023-07-13T09:57:11;8.23;;;7.40;;
5085;SDS011;4715;51.660;7.082;2023-07-13T09:59:41;12.60;;;7.20;;
5085;SDS011;4715;51.660;7.082;2023-07-13T10:02:22;8.43;;;6.40;;
5085;SDS011;4715;51.660;7.082;2023-07-13T10:04:45;9.57;;;6.20;;
5085;SDS011;4715;51.660;7.082;2023-07-13T10:07:07;7.00;;;5.90;;
5085;SDS011;4715;51.660;7.082;2023-07-13T10:09:33;7.47;;;5.33;;
5085;SDS011;4715;51.660;7.082;2023-07-13T10:11:55;5.23;;;4.40;;
5085;SDS011;4715;51.660;7.082;2023-07-13T10:14:17;4.57;;;3.93;;
5085;SDS011;4715;51.660;7.082;2023-07-13T10:16:47;3.20;;;2.90;;
5085;SDS011;4715;51.660;7.082;2023-07-13T10:19:14;4.80;;;3.30;;
5085;SDS011;4715;51.660;7.082;2023-07-13T10:21:43;5.00;;;3.00;;
5085;SDS011;4715;51.660;7.082;2023-07-13T10:24:25;2.67;;;2.30;;
5085;SDS011;4715;51.660;7.082;2023-07-13T10:26:48;5.67;;;2.80;;
5085;SDS011;4715;51.660;7.082;2023-07-13T10:29:15;4.90;;;2.60;;
5085;SDS011;4715;51.660;7.082;2023-07-13T10:31:38;4.07;;;2.60;;
5085;SDS011;4715;51.660;7.082;2023-07-13T10:34:03;3.33;;;2.20;;
5085;SDS011;4715;51.660;7.082;2023-07-13T10:36:31;6.13;;;3.10;;
5085;SDS011;4715;51.660;7.082;2023-07-13T10:39:02;2.87;;;2.57;;
5085;SDS011;4715;51.660;7.082;2023-07-13T10:41:27;2.70;;;2.50;;
5085;SDS011;4715;51.660;7.082;2023-07-13T10:43:54;4.10;;;2.50;;
5085;SDS011;4715;51.660;7.082;2023-07-13T10:46:18;3.73;;;2.30;;
5085;SDS011;4715;51.660;7.082;2023-07-13T10:48:42;2.40;;;2.20;;
5085;SDS011;4715;51.660;7.082;2023-07-13T10:51:07;2.37;;;2.17;;
5085;SDS011;4715;51.660;7.082;2023-07-13T10:53:31;4.13;;;2.80;;
5085;SDS011;4715;51.660;7.082;2023-07-13T10:55:56;4.93;;;2.47;;
5085;SDS011;4715;51.660;7.082;2023-07-13T10:58:22;3.90;;;2.50;;
5085;SDS011;4715;51.660;7.082;2023-07-13T11:00:50;6.20;;;2.40;;
5085;SDS011;4715;51.660;7.082;2023-07-13T11:03:25;4.70;;;2.77;;
5085;SDS011;4715;51.660;7.082;2023-07-13T11:05:49;3.93;;;2.37;;
5085;SDS011;4715;51.660;7.082;2023-07-13T11:08:33;5.00;;;2.40;;
5085;SDS011;4715;51.660;7.082;2023-07-13T11:10:57;5.50;;;2.70;;
5085;SDS011;4715;51.660;7.082;2023-07-13T11:13:38;3.30;;;2.40;;
5085;SDS011;4715;51.660;7.082;2023-07-13T11:19:25;3.13;;;2.27;;
5085;SDS011;4715;51.660;7.082;2023-07-13T11:22:02;4.13;;;2.50;;
5085;SDS011;4715;51.660;7.082;2023-07-13T11:27:23;5.90;;;3.00;;
5085;SDS011;4715;51.660;7.082;2023-07-13T11:30:06;3.70;;;2.50;;
5085;SDS011;4715;51.660;7.082;2023-07-13T11:32:30;5.47;;;2.97;;
5085;SDS011;4715;51.660;7.082;2023-07-13T11:34:56;6.20;;;2.87;;
5085;SDS011;4715;51.660;7.082;2023-07-13T11:37:18;8.10;;;2.47;;
5085;SDS011;4715;51.660;7.082;2023-07-13T11:39:41;4.37;;;2.83;;
5085;SDS011;4715;51.660;7.082;2023-07-13T11:42:06;3.90;;;2.77;;
5085;SDS011;4715;51.660;7.082;2023-07-13T11:44:41;2.47;;;1.97;;
5085;SDS011;4715;51.660;7.082;2023-07-13T11:47:08;5.77;;;2.17;;
5085;SDS011;4715;51.660;7.082;2023-07-13T11:49:31;5.40;;;1.90;;
5085;SDS011;4715;51.660;7.082;2023-07-13T11:52:00;4.90;;;2.40;;
5085;SDS011;4715;51.660;7.082;2023-07-13T11:54:24;2.80;;;1.90;;
5085;SDS011;4715;51.660;7.082;2023-07-13T11:56:47;5.27;;;2.70;;
5085;SDS011;4715;51.660;7.082;2023-07-13T11:59:10;2.53;;;2.30;;
5085;SDS011;4715;51.660;7.082;2023-07-13T12:01:36;3.67;;;1.90;;
5085;SDS011;4715;51.660;7.082;2023-07-13T12:04:04;4.23;;;2.20;;
5085;SDS011;4715;51.660;7.082;2023-07-13T12:06:29;3.10;;;2.10;;
5085;SDS011;4715;51.660;7.082;2023-07-13T12:08:52;2.47;;;2.00;;
5085;SDS011;4715;51.660;7.082;2023-07-13T12:11:17;2.50;;;1.93;;
5085;SDS011;4715;51.660;7.082;2023-07-13T12:13:40;2.87;;;2.20;;
5085;SDS011;4715;51.660;7.082;2023-07-13T12:16:02;3.47;;;2.40;;
5085;SDS011;4715;51.660;7.082;2023-07-13T12:18:31;4.40;;;1.90;;
5085;SDS011;4715;51.660;7.082;2023-07-13T12:20:55;3.10;;;2.10;;
5085;SDS011;4715;51.660;7.082;2023-07-13T12:23:20;3.63;;;2.00;;
5085;SDS011;4715;51.660;7.082;2023-07-13T12:25:44;2.20;;;1.90;;
5085;SDS011;4715;51.660;7.082;2023-07-13T12:28:19;3.10;;;2.20;;
5085;SDS011;4715;51.660;7.082;2023-07-13T12:30:42;2.30;;;1.80;;
5085;SDS011;4715;51.660;7.082;2023-07-13T12:33:11;3.77;;;2.20;;
5085;SDS011;4715;51.660;7.082;2023-07-13T12:35:39;2.53;;;2.43;;
5085;SDS011;4715;51.660;7.082;2023-07-13T12:38:04;2.30;;;2.10;;
5085;SDS011;4715;51.660;7.082;2023-07-13T12:40:32;3.87;;;1.90;;
5085;SDS011;4715;51.660;7.082;2023-07-13T12:42:56;7.60;;;2.30;;
5085;SDS011;4715;51.660;7.082;2023-07-13T12:45:20;3.83;;;2.37;;
5085;SDS011;4715;51.660;7.082;2023-07-13T12:47:49;4.33;;;2.53;;
5085;SDS011;4715;51.660;7.082;2023-07-13T12:50:15;5.60;;;2.13;;
5085;SDS011;4715;51.660;7.082;2023-07-13T12:52:41;2.30;;;2.00;;
5085;SDS011;4715;51.660;7.082;2023-07-13T12:55:06;2.57;;;1.93;;
5085;SDS011;4715;51.660;7.082;2023-07-13T12:57:38;3.50;;;2.00;;
5085;SDS011;4715;51.660;7.082;2023-07-13T13:00:03;3.40;;;2.40;;
5085;SDS011;4715;51.660;7.082;2023-07-13T13:02:39;3.27;;;2.57;;
5085;SDS011;4715;51.660;7.082;2023-07-13T13:05:01;4.37;;;3.03;;
5085;SDS011;4715;51.660;7.082;2023-07-13T13:07:24;3.70;;;3.00;;
5085;SDS011;4715;51.660;7.082;2023-07-13T13:09:48;4.30;;;3.07;;
5085;SDS011;4715;51.660;7.082;2023-07-13T13:12:10;3.53;;;3.23;;
5085;SDS011;4715;51.660;7.082;2023-07-13T13:14:32;3.50;;;3.20;;
5085;SDS011;4715;51.660;7.082;2023-07-13T13:16:54;3.53;;;3.23;;
5085;SDS011;4715;51.660;7.082;2023-07-13T13:19:18;3.43;;;3.10;;
5085;SDS011;4715;51.660;7.082;2023-07-13T13:21:44;3.80;;;2.87;;
5085;SDS011;4715;51.660;7.082;2023-07-13T13:24:10;4.90;;;2.77;;
5085;SDS011;4715;51.660;7.082;2023-07-13T13:26:34;3.10;;;2.90;;
5085;SDS011;4715;51.660;7.082;2023-07-13T13:28:56;2.67;;;2.47;;
5085;SDS011;4715;51.660;7.082;2023-07-13T13:31:17;3.30;;;2.50;;
5085;SDS011;4715;51.660;7.082;2023-07-13T13:33:40;2.67;;;2.47;;
5085;SDS011;4715;51.660;7.082;2023-07-13T13:36:05;2.07;;;1.97;;
5085;SDS011;4715;51.660;7.082;2023-07-13T13:38:30;2.90;;;2.10;;
5085;SDS011;4715;51.660;7.082;2023-07-13T13:40:58;2.50;;;2.00;;
5085;SDS011;4715;51.660;7.082;2023-07-13T13:43:23;2.10;;;1.77;;
5085;SDS011;4715;51.660;7.082;2023-07-13T13:45:47;1.80;;;1.70;;
5085;SDS011;4715;51.660;7.082;2023-07-13T13:48:12;2.90;;;2.07;;
5085;SDS011;4715;51.660;7.082;2023-07-13T13:50:36;3.63;;;1.63;;
5085;SDS011;4715;51.660;7.082;2023-07-13T13:52:58;1.40;;;1.30;;
5085;SDS011;4715;51.660;7.082;2023-07-13T13:55:22;1.97;;;1.87;;
5085;SDS011;4715;51.660;7.082;2023-07-13T13:57:44;1.47;;;1.37;;
5085;SDS011;4715;51.660;7.082;2023-07-13T14:00:09;1.50;;;1.50;;
5085;SDS011;4715;51.660;7.082;2023-07-13T14:02:34;2.50;;;1.50;;
5085;SDS011;4715;51.660;7.082;2023-07-13T14:04:57;1.30;;;1.20;;
5085;SDS011;4715;51.660;7.082;2023-07-13T14:07:20;1.30;;;1.20;;
5085;SDS011;4715;51.660;7.082;2023-07-13T14:09:42;1.60;;;1.50;;
5085;SDS011;4715;51.660;7.082;2023-07-13T14:12:04;1.50;;;1.40;;
5085;SDS011;4715;51.660;7.082;2023-07-13T14:14:27;1.17;;;1.13;;
5085;SDS011;4715;51.660;7.082;2023-07-13T14:16:51;1.30;;;1.27;;
5085;SDS011;4715;51.660;7.082;2023-07-13T14:19:15;1.53;;;1.43;;
5085;SDS011;4715;51.660;7.082;2023-07-13T14:21:36;1.50;;;1.17;;
5085;SDS011;4715;51.660;7.082;2023-07-13T14:23:58;1.37;;;1.27;;
5085;SDS011;4715;51.660;7.082;2023-07-13T14:26:24;1.53;;;1.43;;
5085;SDS011;4715;51.660;7.082;2023-07-13T14:28:48;1.53;;;1.43;;
5085;SDS011;4715;51.660;7.082;2023-07-13T14:31:12;1.80;;;1.70;;
5085;SDS011;4715;51.660;7.082;2023-07-13T14:33:37;1.70;;;1.60;;
5085;SDS011;4715;51.660;7.082;2023-07-13T14:36:01;1.70;;;1.60;;
5085;SDS011;4715;51.660;7.082;2023-07-13T14:38:23;2.03;;;1.90;;
5085;SDS011;4715;51.660;7.082;2023-07-13T14:40:47;1.97;;;1.87;;
5085;SDS011;4715;51.660;7.082;2023-07-13T14:43:12;1.80;;;1.70;;
5085;SDS011;4715;51.660;7.082;2023-07-13T14:45:34;2.03;;;1.93;;
5085;SDS011;4715;51.660;7.082;2023-07-13T14:48:00;2.67;;;2.57;;
5085;SDS011;4715;51.660;7.082;2023-07-13T14:50:26;2.50;;;2.40;;
5085;SDS011;4715;51.660;7.082;2023-07-13T14:52:52;2.33;;;2.20;;
5085;SDS011;4715;51.660;7.082;2023-07-13T14:55:15;2.13;;;2.03;;
5085;SDS011;4715;51.660;7.082;2023-07-13T14:57:38;2.77;;;2.43;;
5085;SDS011;4715;51.660;7.082;2023-07-13T15:00:00;2.20;;;2.10;;
5085;SDS011;4715;51.660;7.082;2023-07-13T15:02:24;2.40;;;2.27;;